Latest 15 Minute Observations

23 Stations

15 Minute Data | America/Los_Angeles
as of 10/24/20 9:48 PM PDT
Station Date Time Temp (°F) RH (%) Dew Pt (°F) Wet Bulb (°F) Canopy Temp (°F) Wind Dir (°) Wind Spd (mph) Wind Gust (mph) Latest Rain (In) Daily Rain (In) Daily Min Temp (°F) Daily Max Temp (°F) Daily Leaf Wet Hrs (hrs)
Ukiah-SE (Ruddick) 10/24/20 2145 54.2   3.3 82   2 49.0   2.7 52.1   3.0 53.6   3.7 SE | 144 3.5 6.2 0.00 0.35 38.3 71.6 8.9
Upper Lake 10/24/20 2145 50.0   1.0 79   10 43.7   2.7 47.3   0.9 - WNW | 301 0.4 1.5 0.00 0.00 38.6 75.9 0.0
Scotts Valley 10/24/20 2145 45.2   0.9 89   8 42.2   1.7 44.1   0.4 - SW | 223 0.1 0.9 0.00 0.00 32.7 77.7 1.3
Kelseyville 10/24/20 2145 49.6   0.0 85   14 45.2   4.9 47.9   2.5 - S | 170 1.1 2.2 0.00 0.00 36.2 75.0 0.0
Kelseyville (Clark Drive) 10/24/20 2145 48.2   0.9 - - - - - - - - - 36.1 76.4 -
Kelseyville Remote 10/24/20 2145 50.9   1.2 75   10 43.2   2.6 47.4   0.8 - - - - - - 38.3 75.5 -
Kelseyville-South 10/24/20 2145 50.4   1.2 82   14 45.1   6.1 48.2   3.6 - SE | 137 0.5 2.4 0.00 0.00 38.1 73.0 0.0
Bell Hill-West 10/24/20 2145 49.3   1.1 81   17 43.7   5.1 46.9   2.0 - SSW | 192 2.9 4.1 0.00 0.00 39.9 72.9 -
Wight Way 10/24/20 2145 44.1   0.6 93   13 42.3   3.2 43.6   1.2 - SE | 128 0.9 2.4 0.00 0.00 35.8 76.2 -
High Valley Ridgeline (Brassfield) 10/24/20 2145 54.7   4.8 76   24 47.2   5.6 50.1   2.5 - W | 275 4.1 6.3 0.00 0.00 52.8 71.9 -
Ridgeline Top (Brassfield) 10/24/20 2145 53.0   4.7 - - - - - - - - - 52.6 72.6 -
Ridgeline Low (Brassfield) 10/24/20 2145 55.4   4.2 - - - - - - - - - 49.8 71.1 -
High Valley Winery 10/24/20 2145 48.2   2.2 80   17 42.2   3.9 42.2   3.9 - NNW | 347 1.1 2.1 0.00 0.00 35.9 73.0 -
Red Hills-East 10/24/20 2145 47.2   11.6 83   33 42.3   2.0 45.2   4.3 - SE | 132 0.1 1.3 0.00 0.00 41.9 75.8 -
Red Hills (Beckstoffer) 10/24/20 2145 43.4   2.3 89   12 40.4   1.4 42.3   0.5 - - - - - - 33.4 75.9 -
Middletown (Diamond D) 10/24/20 2145 50.8   0.3 82   9 45.6   2.6 48.7   1.2 - WNW | 295 3.8 5.2 0.00 0.00 36.2 74.0 -
Middletown-West (Bella Vista) 10/24/20 2145 52.0   2.9 79   7 45.9   5.1 - - - - - 0.00 0.00 35.6 75.3 -
Middletown-South 10/24/20 2145 47.0   2.4 85   12 42.7   1.8 45.2   0.3 - SW | 227 1.4 2.8 0.00 0.00 37.8 73.9 -
Lower Bohn 10/24/20 2130 44.8   0.8 85   11 40.6   2.6 43.1   0.8 - SSW | 207 0.6 2.0 0.00 0.00 33.5 73.8 -
Upper Bohn-North 10/24/20 2145 53.8   3.5 73   11 45.4   0.9 49.9   1.0 - SE | 132 2.3 3.7 0.00 0.00 40.7 75.2 -
Upper Bohn-South 10/24/20 2145 49.6   2.5 41   24 26.8   18.3 40.1   2.9 - SW | 228 0.2 1.3 0.00 0.00 43.1 74.8 -
Morgan Valley 10/24/20 2145 54.0   6.9 60   19 40.3   3.3 47.4   1.5 - W | 278 2.2 3.5 0.00 0.00 52.2 67.9 -
Cow Mountain 10/24/20 2145 55.7   3.1 - - - - NNW | 328 3.9 6.8 0.00 0.00 52.8 63.6 -
Max     55.7 93 49.0 52.1 - - 4.1 6.8 0.00 0.35 52.8 77.7 8.9
Avg     50.1 79 42.8 46.2 - - 1.7 3.2 0.00 - - - -
Min     43.4 41 26.8 40.1 - - 0.1 0.9 0.00 0.00 32.7 63.6 0.0